sensor_id;sensor_type;location;lat;lon;timestamp;P1;durP1;ratioP1;P2;durP2;ratioP2
40501;SDS011;29631;49.168;9.848;2023-04-28T00:02:15;7.63;;;5.15;;
40501;SDS011;29631;49.168;9.848;2023-04-28T00:04:42;5.47;;;4.95;;
40501;SDS011;29631;49.168;9.848;2023-04-28T00:07:08;6.68;;;4.65;;
40501;SDS011;29631;49.168;9.848;2023-04-28T00:09:33;5.47;;;4.95;;
40501;SDS011;29631;49.168;9.848;2023-04-28T00:11:59;5.25;;;4.75;;
40501;SDS011;29631;49.168;9.848;2023-04-28T00:14:25;6.97;;;5.35;;
40501;SDS011;29631;49.168;9.848;2023-04-28T00:16:51;5.57;;;5.13;;
40501;SDS011;29631;49.168;9.848;2023-04-28T00:19:17;5.60;;;5.10;;
40501;SDS011;29631;49.168;9.848;2023-04-28T00:21:42;5.03;;;4.63;;
40501;SDS011;29631;49.168;9.848;2023-04-28T00:24:08;5.50;;;5.10;;
40501;SDS011;29631;49.168;9.848;2023-04-28T00:26:34;5.65;;;5.15;;
40501;SDS011;29631;49.168;9.848;2023-04-28T00:29:00;5.75;;;5.18;;
40501;SDS011;29631;49.168;9.848;2023-04-28T00:31:26;7.10;;;5.00;;
40501;SDS011;29631;49.168;9.848;2023-04-28T00:33:52;5.18;;;4.78;;
40501;SDS011;29631;49.168;9.848;2023-04-28T00:36:17;5.00;;;4.60;;
40501;SDS011;29631;49.168;9.848;2023-04-28T00:38:43;6.63;;;4.90;;
40501;SDS011;29631;49.168;9.848;2023-04-28T00:41:09;4.95;;;4.55;;
40501;SDS011;29631;49.168;9.848;2023-04-28T00:43:47;5.13;;;4.80;;
40501;SDS011;29631;49.168;9.848;2023-04-28T00:46:24;5.22;;;4.82;;
40501;SDS011;29631;49.168;9.848;2023-04-28T00:48:53;4.80;;;4.40;;
40501;SDS011;29631;49.168;9.848;2023-04-28T00:51:20;5.15;;;4.63;;
40501;SDS011;29631;49.168;9.848;2023-04-28T00:53:46;5.20;;;4.80;;
40501;SDS011;29631;49.168;9.848;2023-04-28T00:56:12;6.47;;;4.50;;
40501;SDS011;29631;49.168;9.848;2023-04-28T00:58:39;5.53;;;5.00;;
40501;SDS011;29631;49.168;9.848;2023-04-28T01:01:06;4.38;;;4.13;;
40501;SDS011;29631;49.168;9.848;2023-04-28T01:03:34;4.75;;;4.45;;
40501;SDS011;29631;49.168;9.848;2023-04-28T01:06:05;4.80;;;4.45;;
40501;SDS011;29631;49.168;9.848;2023-04-28T01:08:34;5.28;;;4.78;;
40501;SDS011;29631;49.168;9.848;2023-04-28T01:11:01;4.60;;;4.30;;
40501;SDS011;29631;49.168;9.848;2023-04-28T01:13:27;4.70;;;4.40;;
40501;SDS011;29631;49.168;9.848;2023-04-28T01:15:54;5.07;;;4.68;;
40501;SDS011;29631;49.168;9.848;2023-04-28T01:18:20;5.20;;;4.70;;
40501;SDS011;29631;49.168;9.848;2023-04-28T01:20:47;4.82;;;4.53;;
40501;SDS011;29631;49.168;9.848;2023-04-28T01:23:13;4.75;;;4.35;;
40501;SDS011;29631;49.168;9.848;2023-04-28T01:25:41;4.60;;;4.30;;
40501;SDS011;29631;49.168;9.848;2023-04-28T01:28:07;4.63;;;4.32;;
40501;SDS011;29631;49.168;9.848;2023-04-28T01:30:34;5.07;;;4.20;;
40501;SDS011;29631;49.168;9.848;2023-04-28T01:33:01;4.80;;;4.40;;
40501;SDS011;29631;49.168;9.848;2023-04-28T01:35:27;4.63;;;4.32;;
40501;SDS011;29631;49.168;9.848;2023-04-28T01:37:53;4.57;;;4.28;;
40501;SDS011;29631;49.168;9.848;2023-04-28T01:40:19;5.00;;;4.22;;
40501;SDS011;29631;49.168;9.848;2023-04-28T01:42:45;4.45;;;4.15;;
40501;SDS011;29631;49.168;9.848;2023-04-28T01:45:11;4.72;;;4.43;;
40501;SDS011;29631;49.168;9.848;2023-04-28T01:47:37;4.63;;;4.22;;
40501;SDS011;29631;49.168;9.848;2023-04-28T01:50:03;3.75;;;3.45;;
40501;SDS011;29631;49.168;9.848;2023-04-28T01:52:29;3.67;;;3.47;;
40501;SDS011;29631;49.168;9.848;2023-04-28T01:54:55;3.90;;;3.60;;
40501;SDS011;29631;49.168;9.848;2023-04-28T01:57:21;4.25;;;3.85;;
40501;SDS011;29631;49.168;9.848;2023-04-28T01:59:47;3.85;;;3.55;;
40501;SDS011;29631;49.168;9.848;2023-04-28T02:02:13;4.35;;;3.90;;
40501;SDS011;29631;49.168;9.848;2023-04-28T02:04:38;4.10;;;3.80;;
40501;SDS011;29631;49.168;9.848;2023-04-28T02:07:05;3.80;;;3.60;;
40501;SDS011;29631;49.168;9.848;2023-04-28T02:09:31;3.97;;;3.72;;
40501;SDS011;29631;49.168;9.848;2023-04-28T02:11:57;3.67;;;3.47;;
40501;SDS011;29631;49.168;9.848;2023-04-28T02:14:24;3.25;;;3.05;;
40501;SDS011;29631;49.168;9.848;2023-04-28T02:16:50;4.25;;;3.97;;
40501;SDS011;29631;49.168;9.848;2023-04-28T02:19:15;4.30;;;3.90;;
40501;SDS011;29631;49.168;9.848;2023-04-28T02:21:41;4.00;;;3.70;;
40501;SDS011;29631;49.168;9.848;2023-04-28T02:24:07;3.78;;;3.58;;
40501;SDS011;29631;49.168;9.848;2023-04-28T02:26:33;3.90;;;3.50;;
40501;SDS011;29631;49.168;9.848;2023-04-28T02:28:59;3.80;;;3.50;;
40501;SDS011;29631;49.168;9.848;2023-04-28T02:31:28;3.97;;;3.78;;
40501;SDS011;29631;49.168;9.848;2023-04-28T02:33:53;3.63;;;3.40;;
40501;SDS011;29631;49.168;9.848;2023-04-28T02:36:20;3.97;;;3.67;;
40501;SDS011;29631;49.168;9.848;2023-04-28T02:38:46;3.70;;;3.50;;
40501;SDS011;29631;49.168;9.848;2023-04-28T02:41:12;4.35;;;4.07;;
40501;SDS011;29631;49.168;9.848;2023-04-28T02:43:39;3.97;;;3.67;;
40501;SDS011;29631;49.168;9.848;2023-04-28T02:46:05;4.25;;;3.92;;
40501;SDS011;29631;49.168;9.848;2023-04-28T02:48:31;4.53;;;4.22;;
40501;SDS011;29631;49.168;9.848;2023-04-28T02:50:59;4.88;;;3.90;;
40501;SDS011;29631;49.168;9.848;2023-04-28T02:53:28;4.28;;;3.88;;
40501;SDS011;29631;49.168;9.848;2023-04-28T02:55:54;3.92;;;3.63;;
40501;SDS011;29631;49.168;9.848;2023-04-28T02:58:19;4.43;;;4.13;;
40501;SDS011;29631;49.168;9.848;2023-04-28T03:00:45;3.88;;;3.63;;
40501;SDS011;29631;49.168;9.848;2023-04-28T03:03:11;4.40;;;4.10;;
40501;SDS011;29631;49.168;9.848;2023-04-28T03:05:37;4.97;;;4.47;;
40501;SDS011;29631;49.168;9.848;2023-04-28T03:08:03;4.50;;;4.10;;
40501;SDS011;29631;49.168;9.848;2023-04-28T03:10:29;4.57;;;4.18;;
40501;SDS011;29631;49.168;9.848;2023-04-28T03:12:55;4.57;;;4.28;;
40501;SDS011;29631;49.168;9.848;2023-04-28T03:15:21;4.13;;;3.90;;
40501;SDS011;29631;49.168;9.848;2023-04-28T03:17:46;3.92;;;3.63;;
40501;SDS011;29631;49.168;9.848;2023-04-28T03:20:12;4.00;;;3.70;;
40501;SDS011;29631;49.168;9.848;2023-04-28T03:22:38;3.35;;;3.13;;
40501;SDS011;29631;49.168;9.848;2023-04-28T03:25:04;3.72;;;3.50;;
40501;SDS011;29631;49.168;9.848;2023-04-28T03:27:30;3.60;;;3.40;;
40501;SDS011;29631;49.168;9.848;2023-04-28T03:29:56;3.20;;;3.08;;
40501;SDS011;29631;49.168;9.848;2023-04-28T03:32:21;3.95;;;3.65;;
40501;SDS011;29631;49.168;9.848;2023-04-28T03:34:47;3.40;;;3.20;;
40501;SDS011;29631;49.168;9.848;2023-04-28T03:37:13;3.40;;;3.20;;
40501;SDS011;29631;49.168;9.848;2023-04-28T03:39:38;3.90;;;3.60;;
40501;SDS011;29631;49.168;9.848;2023-04-28T03:42:04;3.60;;;3.40;;
40501;SDS011;29631;49.168;9.848;2023-04-28T03:44:30;3.60;;;3.40;;
40501;SDS011;29631;49.168;9.848;2023-04-28T03:46:56;3.25;;;3.08;;
40501;SDS011;29631;49.168;9.848;2023-04-28T03:49:21;3.10;;;2.90;;
40501;SDS011;29631;49.168;9.848;2023-04-28T03:51:47;3.53;;;3.33;;
40501;SDS011;29631;49.168;9.848;2023-04-28T03:54:15;3.78;;;3.50;;
40501;SDS011;29631;49.168;9.848;2023-04-28T03:56:41;3.42;;;3.22;;
40501;SDS011;29631;49.168;9.848;2023-04-28T03:59:06;3.40;;;3.20;;
40501;SDS011;29631;49.168;9.848;2023-04-28T04:01:35;3.35;;;3.15;;
40501;SDS011;29631;49.168;9.848;2023-04-28T04:04:01;3.08;;;2.88;;
40501;SDS011;29631;49.168;9.848;2023-04-28T04:06:27;3.70;;;3.17;;
40501;SDS011;29631;49.168;9.848;2023-04-28T04:08:53;3.03;;;2.92;;
40501;SDS011;29631;49.168;9.848;2023-04-28T04:11:19;2.85;;;2.72;;
40501;SDS011;29631;49.168;9.848;2023-04-28T04:13:45;3.33;;;3.13;;
40501;SDS011;29631;49.168;9.848;2023-04-28T04:16:11;3.13;;;2.92;;
40501;SDS011;29631;49.168;9.848;2023-04-28T04:18:39;3.22;;;3.03;;
40501;SDS011;29631;49.168;9.848;2023-04-28T04:21:05;3.20;;;3.00;;
40501;SDS011;29631;49.168;9.848;2023-04-28T04:23:31;2.83;;;2.72;;
40501;SDS011;29631;49.168;9.848;2023-04-28T04:25:57;2.80;;;2.60;;
40501;SDS011;29631;49.168;9.848;2023-04-28T04:28:22;3.20;;;2.90;;
40501;SDS011;29631;49.168;9.848;2023-04-28T04:30:48;3.10;;;2.90;;
40501;SDS011;29631;49.168;9.848;2023-04-28T04:33:14;4.63;;;3.20;;
40501;SDS011;29631;49.168;9.848;2023-04-28T04:35:40;3.00;;;2.80;;
40501;SDS011;29631;49.168;9.848;2023-04-28T04:38:06;3.13;;;2.85;;
40501;SDS011;29631;49.168;9.848;2023-04-28T04:40:31;3.03;;;2.90;;
40501;SDS011;29631;49.168;9.848;2023-04-28T04:42:57;2.90;;;2.70;;
40501;SDS011;29631;49.168;9.848;2023-04-28T04:45:23;3.30;;;3.10;;
40501;SDS011;29631;49.168;9.848;2023-04-28T04:47:48;3.50;;;3.15;;
40501;SDS011;29631;49.168;9.848;2023-04-28T04:50:14;2.80;;;2.60;;
40501;SDS011;29631;49.168;9.848;2023-04-28T04:52:40;3.60;;;3.05;;
40501;SDS011;29631;49.168;9.848;2023-04-28T04:55:06;3.08;;;2.97;;
40501;SDS011;29631;49.168;9.848;2023-04-28T04:57:32;3.53;;;2.90;;
40501;SDS011;29631;49.168;9.848;2023-04-28T04:59:58;3.95;;;3.35;;
40501;SDS011;29631;49.168;9.848;2023-04-28T05:02:23;3.30;;;3.10;;
40501;SDS011;29631;49.168;9.848;2023-04-28T05:04:49;3.10;;;2.97;;
40501;SDS011;29631;49.168;9.848;2023-04-28T05:07:15;2.88;;;2.70;;
40501;SDS011;29631;49.168;9.848;2023-04-28T05:09:41;3.35;;;3.10;;
40501;SDS011;29631;49.168;9.848;2023-04-28T05:12:07;3.63;;;3.35;;
40501;SDS011;29631;49.168;9.848;2023-04-28T05:14:32;3.58;;;3.38;;
40501;SDS011;29631;49.168;9.848;2023-04-28T05:16:58;3.90;;;3.55;;
40501;SDS011;29631;49.168;9.848;2023-04-28T05:19:24;3.33;;;3.13;;
40501;SDS011;29631;49.168;9.848;2023-04-28T05:21:50;3.22;;;3.03;;
40501;SDS011;29631;49.168;9.848;2023-04-28T05:24:19;3.08;;;2.88;;
40501;SDS011;29631;49.168;9.848;2023-04-28T05:26:47;3.25;;;3.05;;
40501;SDS011;29631;49.168;9.848;2023-04-28T05:29:15;3.40;;;3.20;;
40501;SDS011;29631;49.168;9.848;2023-04-28T05:31:41;3.33;;;3.13;;
40501;SDS011;29631;49.168;9.848;2023-04-28T05:34:06;3.00;;;2.90;;
40501;SDS011;29631;49.168;9.848;2023-04-28T05:36:32;2.90;;;2.80;;
40501;SDS011;29631;49.168;9.848;2023-04-28T05:38:58;3.05;;;2.85;;
40501;SDS011;29631;49.168;9.848;2023-04-28T05:41:24;3.35;;;3.08;;
40501;SDS011;29631;49.168;9.848;2023-04-28T05:43:50;2.75;;;2.55;;
40501;SDS011;29631;49.168;9.848;2023-04-28T05:46:16;5.15;;;2.67;;
40501;SDS011;29631;49.168;9.848;2023-04-28T05:48:42;3.40;;;3.10;;
40501;SDS011;29631;49.168;9.848;2023-04-28T05:51:08;2.63;;;2.50;;
40501;SDS011;29631;49.168;9.848;2023-04-28T05:53:33;3.45;;;3.22;;
40501;SDS011;29631;49.168;9.848;2023-04-28T05:55:59;3.10;;;2.90;;
40501;SDS011;29631;49.168;9.848;2023-04-28T05:58:25;2.97;;;2.85;;
40501;SDS011;29631;49.168;9.848;2023-04-28T06:00:51;3.13;;;2.92;;
40501;SDS011;29631;49.168;9.848;2023-04-28T06:03:17;2.78;;;2.58;;
40501;SDS011;29631;49.168;9.848;2023-04-28T06:05:43;3.30;;;3.10;;
40501;SDS011;29631;49.168;9.848;2023-04-28T06:08:09;2.90;;;2.70;;
40501;SDS011;29631;49.168;9.848;2023-04-28T06:10:35;3.50;;;3.20;;
40501;SDS011;29631;49.168;9.848;2023-04-28T06:13:01;4.20;;;2.60;;
40501;SDS011;29631;49.168;9.848;2023-04-28T06:15:29;2.97;;;2.75;;
40501;SDS011;29631;49.168;9.848;2023-04-28T06:17:55;3.13;;;2.92;;
40501;SDS011;29631;49.168;9.848;2023-04-28T06:20:20;2.45;;;2.35;;
40501;SDS011;29631;49.168;9.848;2023-04-28T06:22:46;2.95;;;2.75;;
40501;SDS011;29631;49.168;9.848;2023-04-28T06:25:12;2.80;;;2.60;;
40501;SDS011;29631;49.168;9.848;2023-04-28T06:27:38;3.40;;;2.72;;
40501;SDS011;29631;49.168;9.848;2023-04-28T06:30:03;2.53;;;2.42;;
40501;SDS011;29631;49.168;9.848;2023-04-28T06:32:30;2.88;;;2.67;;
40501;SDS011;29631;49.168;9.848;2023-04-28T06:34:56;3.00;;;2.70;;
40501;SDS011;29631;49.168;9.848;2023-04-28T06:37:22;3.17;;;2.97;;
40501;SDS011;29631;49.168;9.848;2023-04-28T06:39:47;2.78;;;2.58;;
40501;SDS011;29631;49.168;9.848;2023-04-28T06:42:13;3.08;;;2.88;;
40501;SDS011;29631;49.168;9.848;2023-04-28T06:44:42;2.53;;;2.42;;
40501;SDS011;29631;49.168;9.848;2023-04-28T06:47:08;2.90;;;2.70;;
40501;SDS011;29631;49.168;9.848;2023-04-28T06:49:34;2.58;;;2.47;;
40501;SDS011;29631;49.168;9.848;2023-04-28T06:52:00;2.90;;;2.70;;
40501;SDS011;29631;49.168;9.848;2023-04-28T06:54:26;2.75;;;2.55;;
40501;SDS011;29631;49.168;9.848;2023-04-28T06:56:51;2.58;;;2.28;;
40501;SDS011;29631;49.168;9.848;2023-04-28T06:59:17;2.42;;;2.33;;
40501;SDS011;29631;49.168;9.848;2023-04-28T07:01:43;2.42;;;2.33;;
40501;SDS011;29631;49.168;9.848;2023-04-28T07:04:08;2.55;;;2.38;;
40501;SDS011;29631;49.168;9.848;2023-04-28T07:06:34;2.65;;;2.55;;
40501;SDS011;29631;49.168;9.848;2023-04-28T07:09:00;2.58;;;2.38;;
40501;SDS011;29631;49.168;9.848;2023-04-28T07:11:26;2.92;;;2.72;;
40501;SDS011;29631;49.168;9.848;2023-04-28T07:13:51;2.63;;;2.50;;
40501;SDS011;29631;49.168;9.848;2023-04-28T07:16:17;2.90;;;2.72;;
40501;SDS011;29631;49.168;9.848;2023-04-28T07:18:43;2.50;;;2.20;;
40501;SDS011;29631;49.168;9.848;2023-04-28T07:21:09;2.90;;;2.70;;
40501;SDS011;29631;49.168;9.848;2023-04-28T07:23:35;2.72;;;2.53;;
40501;SDS011;29631;49.168;9.848;2023-04-28T07:26:02;3.05;;;2.85;;
40501;SDS011;29631;49.168;9.848;2023-04-28T07:28:28;3.15;;;2.80;;
40501;SDS011;29631;49.168;9.848;2023-04-28T07:30:54;3.15;;;2.97;;
40501;SDS011;29631;49.168;9.848;2023-04-28T07:33:21;2.72;;;2.58;;
40501;SDS011;29631;49.168;9.848;2023-04-28T07:35:47;3.03;;;2.83;;
40501;SDS011;29631;49.168;9.848;2023-04-28T07:38:13;3.10;;;2.78;;
40501;SDS011;29631;49.168;9.848;2023-04-28T07:40:40;3.22;;;3.03;;
40501;SDS011;29631;49.168;9.848;2023-04-28T07:43:07;3.45;;;3.25;;
40501;SDS011;29631;49.168;9.848;2023-04-28T07:45:36;3.25;;;3.05;;
40501;SDS011;29631;49.168;9.848;2023-04-28T07:48:03;3.13;;;2.92;;
40501;SDS011;29631;49.168;9.848;2023-04-28T07:50:30;3.05;;;2.85;;
40501;SDS011;29631;49.168;9.848;2023-04-28T07:52:56;2.78;;;2.67;;
40501;SDS011;29631;49.168;9.848;2023-04-28T07:55:22;3.95;;;2.78;;
40501;SDS011;29631;49.168;9.848;2023-04-28T07:57:48;2.78;;;2.60;;
40501;SDS011;29631;49.168;9.848;2023-04-28T08:00:14;3.35;;;3.05;;
40501;SDS011;29631;49.168;9.848;2023-04-28T08:02:41;3.10;;;2.90;;
40501;SDS011;29631;49.168;9.848;2023-04-28T08:05:07;2.75;;;2.55;;
40501;SDS011;29631;49.168;9.848;2023-04-28T08:07:33;2.75;;;2.65;;
40501;SDS011;29631;49.168;9.848;2023-04-28T08:10:02;3.42;;;3.13;;
40501;SDS011;29631;49.168;9.848;2023-04-28T08:12:29;2.90;;;2.70;;
40501;SDS011;29631;49.168;9.848;2023-04-28T08:14:55;2.88;;;2.70;;
40501;SDS011;29631;49.168;9.848;2023-04-28T08:17:21;3.03;;;2.83;;
40501;SDS011;29631;49.168;9.848;2023-04-28T08:19:47;3.17;;;2.90;;
40501;SDS011;29631;49.168;9.848;2023-04-28T08:22:12;3.15;;;2.95;;
40501;SDS011;29631;49.168;9.848;2023-04-28T08:24:38;3.45;;;3.25;;
40501;SDS011;29631;49.168;9.848;2023-04-28T08:27:04;3.00;;;2.90;;
40501;SDS011;29631;49.168;9.848;2023-04-28T08:29:30;3.80;;;3.50;;
40501;SDS011;29631;49.168;9.848;2023-04-28T08:31:57;3.78;;;3.47;;
40501;SDS011;29631;49.168;9.848;2023-04-28T08:34:23;3.75;;;3.50;;
40501;SDS011;29631;49.168;9.848;2023-04-28T08:36:50;3.70;;;3.40;;
40501;SDS011;29631;49.168;9.848;2023-04-28T08:39:16;3.78;;;3.55;;
40501;SDS011;29631;49.168;9.848;2023-04-28T08:41:43;3.03;;;2.83;;
40501;SDS011;29631;49.168;9.848;2023-04-28T08:44:09;3.28;;;3.08;;
40501;SDS011;29631;49.168;9.848;2023-04-28T08:46:37;3.30;;;3.20;;
40501;SDS011;29631;49.168;9.848;2023-04-28T08:49:11;3.78;;;3.47;;
40501;SDS011;29631;49.168;9.848;2023-04-28T08:51:49;3.92;;;3.58;;
40501;SDS011;29631;49.168;9.848;2023-04-28T08:54:21;3.08;;;2.90;;
40501;SDS011;29631;49.168;9.848;2023-04-28T08:56:49;3.10;;;2.95;;
40501;SDS011;29631;49.168;9.848;2023-04-28T08:59:15;3.55;;;3.35;;
40501;SDS011;29631;49.168;9.848;2023-04-28T09:01:42;3.45;;;3.05;;
40501;SDS011;29631;49.168;9.848;2023-04-28T09:04:07;3.63;;;3.42;;
40501;SDS011;29631;49.168;9.848;2023-04-28T09:06:35;3.58;;;3.38;;
40501;SDS011;29631;49.168;9.848;2023-04-28T09:11:58;3.38;;;3.17;;
40501;SDS011;29631;49.168;9.848;2023-04-28T09:14:26;3.80;;;3.60;;
40501;SDS011;29631;49.168;9.848;2023-04-28T09:16:54;3.72;;;3.42;;
40501;SDS011;29631;49.168;9.848;2023-04-28T09:19:20;3.78;;;3.58;;
40501;SDS011;29631;49.168;9.848;2023-04-28T09:21:53;3.95;;;3.75;;
40501;SDS011;29631;49.168;9.848;2023-04-28T09:24:24;3.60;;;3.40;;
40501;SDS011;29631;49.168;9.848;2023-04-28T09:26:52;3.80;;;3.60;;
40501;SDS011;29631;49.168;9.848;2023-04-28T09:29:18;3.45;;;3.25;;
40501;SDS011;29631;49.168;9.848;2023-04-28T09:31:44;2.97;;;2.78;;
40501;SDS011;29631;49.168;9.848;2023-04-28T09:34:10;3.53;;;3.33;;
40501;SDS011;29631;49.168;9.848;2023-04-28T09:36:36;2.67;;;2.58;;
40501;SDS011;29631;49.168;9.848;2023-04-28T09:39:02;2.92;;;2.72;;
40501;SDS011;29631;49.168;9.848;2023-04-28T09:41:43;3.05;;;2.88;;
40501;SDS011;29631;49.168;9.848;2023-04-28T09:44:16;3.00;;;2.80;;
40501;SDS011;29631;49.168;9.848;2023-04-28T09:46:45;3.47;;;3.28;;
40501;SDS011;29631;49.168;9.848;2023-04-28T09:49:11;3.05;;;2.88;;
40501;SDS011;29631;49.168;9.848;2023-04-28T09:51:38;2.85;;;2.75;;
40501;SDS011;29631;49.168;9.848;2023-04-28T09:54:05;2.80;;;2.70;;
40501;SDS011;29631;49.168;9.848;2023-04-28T09:56:32;2.60;;;2.50;;
40501;SDS011;29631;49.168;9.848;2023-04-28T09:59:02;2.55;;;2.38;;
40501;SDS011;29631;49.168;9.848;2023-04-28T10:01:32;2.75;;;2.65;;
40501;SDS011;29631;49.168;9.848;2023-04-28T10:04:03;2.63;;;2.42;;
40501;SDS011;29631;49.168;9.848;2023-04-28T10:06:31;2.33;;;2.22;;
40501;SDS011;29631;49.168;9.848;2023-04-28T10:09:01;2.15;;;2.08;;
40501;SDS011;29631;49.168;9.848;2023-04-28T10:11:27;2.40;;;2.30;;
40501;SDS011;29631;49.168;9.848;2023-04-28T10:13:54;2.35;;;2.25;;
40501;SDS011;29631;49.168;9.848;2023-04-28T10:16:21;2.25;;;2.15;;
40501;SDS011;29631;49.168;9.848;2023-04-28T10:18:48;2.17;;;2.08;;
40501;SDS011;29631;49.168;9.848;2023-04-28T10:21:15;1.80;;;1.80;;
40501;SDS011;29631;49.168;9.848;2023-04-28T10:23:56;2.83;;;2.55;;
40501;SDS011;29631;49.168;9.848;2023-04-28T10:27:15;2.10;;;2.03;;
40501;SDS011;29631;49.168;9.848;2023-04-28T10:29:29;2.10;;;2.00;;
40501;SDS011;29631;49.168;9.848;2023-04-28T10:34:45;2.42;;;2.20;;
40501;SDS011;29631;49.168;9.848;2023-04-28T10:37:12;1.88;;;1.80;;
40501;SDS011;29631;49.168;9.848;2023-04-28T10:42:57;1.77;;;1.73;;
40501;SDS011;29631;49.168;9.848;2023-04-28T10:48:13;1.88;;;1.88;;
40501;SDS011;29631;49.168;9.848;2023-04-28T10:51:15;2.08;;;1.98;;
40501;SDS011;29631;49.168;9.848;2023-04-28T10:56:09;2.00;;;1.90;;
40501;SDS011;29631;49.168;9.848;2023-04-28T10:58:36;1.83;;;1.73;;
40501;SDS011;29631;49.168;9.848;2023-04-28T11:04:04;1.70;;;1.60;;
40501;SDS011;29631;49.168;9.848;2023-04-28T11:14:32;1.33;;;1.30;;
40501;SDS011;29631;49.168;9.848;2023-04-28T11:17:00;1.45;;;1.45;;
40501;SDS011;29631;49.168;9.848;2023-04-28T11:19:31;0.90;;;0.90;;
40501;SDS011;29631;49.168;9.848;2023-04-28T11:22:16;1.25;;;1.25;;
40501;SDS011;29631;49.168;9.848;2023-04-28T11:24:57;1.10;;;1.10;;
40501;SDS011;29631;49.168;9.848;2023-04-28T11:27:26;0.70;;;0.70;;
40501;SDS011;29631;49.168;9.848;2023-04-28T11:29:55;0.90;;;0.90;;
40501;SDS011;29631;49.168;9.848;2023-04-28T11:34:54;0.75;;;0.75;;
40501;SDS011;29631;49.168;9.848;2023-04-28T11:37:20;0.85;;;0.60;;
40501;SDS011;29631;49.168;9.848;2023-04-28T11:39:46;0.80;;;0.80;;
40501;SDS011;29631;49.168;9.848;2023-04-28T11:42:13;0.60;;;0.60;;
40501;SDS011;29631;49.168;9.848;2023-04-28T11:44:38;0.80;;;0.80;;
40501;SDS011;29631;49.168;9.848;2023-04-28T11:47:05;0.98;;;0.98;;
40501;SDS011;29631;49.168;9.848;2023-04-28T11:49:40;0.90;;;0.90;;
40501;SDS011;29631;49.168;9.848;2023-04-28T11:52:08;1.13;;;1.13;;
40501;SDS011;29631;49.168;9.848;2023-04-28T11:54:35;0.80;;;0.80;;
40501;SDS011;29631;49.168;9.848;2023-04-28T11:57:02;0.80;;;0.80;;
40501;SDS011;29631;49.168;9.848;2023-04-28T11:59:33;0.80;;;0.80;;
40501;SDS011;29631;49.168;9.848;2023-04-28T12:02:00;1.10;;;1.10;;
40501;SDS011;29631;49.168;9.848;2023-04-28T12:07:06;0.65;;;0.65;;
40501;SDS011;29631;49.168;9.848;2023-04-28T12:09:34;0.80;;;0.80;;
40501;SDS011;29631;49.168;9.848;2023-04-28T12:12:03;1.00;;;1.00;;
40501;SDS011;29631;49.168;9.848;2023-04-28T12:14:30;1.30;;;1.30;;
40501;SDS011;29631;49.168;9.848;2023-04-28T12:17:26;1.40;;;1.40;;
40501;SDS011;29631;49.168;9.848;2023-04-28T12:19:54;1.30;;;1.30;;
40501;SDS011;29631;49.168;9.848;2023-04-28T12:22:21;0.93;;;0.93;;
40501;SDS011;29631;49.168;9.848;2023-04-28T12:27:35;1.10;;;1.10;;
40501;SDS011;29631;49.168;9.848;2023-04-28T12:30:03;1.70;;;1.33;;
40501;SDS011;29631;49.168;9.848;2023-04-28T12:32:50;1.30;;;1.30;;
40501;SDS011;29631;49.168;9.848;2023-04-28T12:35:16;1.45;;;1.45;;
40501;SDS011;29631;49.168;9.848;2023-04-28T12:37:45;1.00;;;1.00;;
40501;SDS011;29631;49.168;9.848;2023-04-28T12:40:10;1.05;;;1.05;;
40501;SDS011;29631;49.168;9.848;2023-04-28T12:42:38;1.40;;;1.40;;
40501;SDS011;29631;49.168;9.848;2023-04-28T12:45:04;0.90;;;0.90;;
40501;SDS011;29631;49.168;9.848;2023-04-28T12:47:31;0.98;;;0.98;;
40501;SDS011;29631;49.168;9.848;2023-04-28T12:49:57;0.73;;;0.73;;
40501;SDS011;29631;49.168;9.848;2023-04-28T12:52:23;1.77;;;1.67;;
40501;SDS011;29631;49.168;9.848;2023-04-28T12:54:48;1.25;;;1.25;;
40501;SDS011;29631;49.168;9.848;2023-04-28T12:57:15;1.20;;;1.10;;
40501;SDS011;29631;49.168;9.848;2023-04-28T12:59:44;0.98;;;0.98;;
40501;SDS011;29631;49.168;9.848;2023-04-28T13:02:16;2.65;;;2.13;;
40501;SDS011;29631;49.168;9.848;2023-04-28T13:04:42;2.97;;;2.67;;
40501;SDS011;29631;49.168;9.848;2023-04-28T13:07:09;4.07;;;3.78;;
40501;SDS011;29631;49.168;9.848;2023-04-28T13:09:37;2.15;;;2.05;;
40501;SDS011;29631;49.168;9.848;2023-04-28T13:12:02;1.30;;;1.30;;
40501;SDS011;29631;49.168;9.848;2023-04-28T13:14:29;1.85;;;1.00;;
40501;SDS011;29631;49.168;9.848;2023-04-28T13:16:55;0.80;;;0.80;;
40501;SDS011;29631;49.168;9.848;2023-04-28T13:19:21;0.80;;;0.80;;
40501;SDS011;29631;49.168;9.848;2023-04-28T13:21:47;0.80;;;0.80;;
40501;SDS011;29631;49.168;9.848;2023-04-28T13:24:13;0.68;;;0.68;;
40501;SDS011;29631;49.168;9.848;2023-04-28T13:26:39;1.90;;;0.80;;
40501;SDS011;29631;49.168;9.848;2023-04-28T13:29:05;1.63;;;1.00;;
40501;SDS011;29631;49.168;9.848;2023-04-28T13:31:32;0.80;;;0.80;;
40501;SDS011;29631;49.168;9.848;2023-04-28T13:33:59;0.82;;;0.82;;
40501;SDS011;29631;49.168;9.848;2023-04-28T13:36:29;1.13;;;1.13;;
40501;SDS011;29631;49.168;9.848;2023-04-28T13:38:58;0.95;;;0.70;;
40501;SDS011;29631;49.168;9.848;2023-04-28T13:41:25;0.80;;;0.80;;
40501;SDS011;29631;49.168;9.848;2023-04-28T13:43:51;0.90;;;0.90;;
40501;SDS011;29631;49.168;9.848;2023-04-28T13:46:17;1.10;;;1.10;;
40501;SDS011;29631;49.168;9.848;2023-04-28T13:48:44;1.00;;;0.95;;
40501;SDS011;29631;49.168;9.848;2023-04-28T13:51:10;1.10;;;1.10;;
40501;SDS011;29631;49.168;9.848;2023-04-28T13:53:36;0.70;;;0.70;;
40501;SDS011;29631;49.168;9.848;2023-04-28T13:56:03;0.80;;;0.80;;
40501;SDS011;29631;49.168;9.848;2023-04-28T13:58:32;0.75;;;0.75;;
40501;SDS011;29631;49.168;9.848;2023-04-28T14:00:58;0.73;;;0.73;;
40501;SDS011;29631;49.168;9.848;2023-04-28T14:03:24;0.80;;;0.80;;
40501;SDS011;29631;49.168;9.848;2023-04-28T14:05:50;0.82;;;0.80;;
40501;SDS011;29631;49.168;9.848;2023-04-28T14:08:21;0.63;;;0.63;;
40501;SDS011;29631;49.168;9.848;2023-04-28T14:10:49;1.35;;;0.77;;
40501;SDS011;29631;49.168;9.848;2023-04-28T14:13:15;1.13;;;0.70;;
40501;SDS011;29631;49.168;9.848;2023-04-28T14:15:43;0.52;;;0.50;;
40501;SDS011;29631;49.168;9.848;2023-04-28T14:18:09;1.20;;;1.10;;
40501;SDS011;29631;49.168;9.848;2023-04-28T14:20:35;0.98;;;0.98;;
40501;SDS011;29631;49.168;9.848;2023-04-28T14:23:01;1.27;;;1.17;;
40501;SDS011;29631;49.168;9.848;2023-04-28T14:25:27;0.88;;;0.88;;
40501;SDS011;29631;49.168;9.848;2023-04-28T14:27:53;0.80;;;0.80;;
40501;SDS011;29631;49.168;9.848;2023-04-28T14:30:19;0.65;;;0.65;;
40501;SDS011;29631;49.168;9.848;2023-04-28T14:32:46;1.65;;;1.60;;
40501;SDS011;29631;49.168;9.848;2023-04-28T14:35:12;1.67;;;1.58;;
40501;SDS011;29631;49.168;9.848;2023-04-28T14:37:39;1.48;;;1.48;;
40501;SDS011;29631;49.168;9.848;2023-04-28T14:40:06;1.15;;;1.15;;
40501;SDS011;29631;49.168;9.848;2023-04-28T14:42:33;1.10;;;1.10;;
40501;SDS011;29631;49.168;9.848;2023-04-28T14:45:01;1.13;;;1.02;;
40501;SDS011;29631;49.168;9.848;2023-04-28T14:47:29;1.00;;;1.00;;
40501;SDS011;29631;49.168;9.848;2023-04-28T14:49:55;0.82;;;0.82;;
40501;SDS011;29631;49.168;9.848;2023-04-28T14:52:21;0.60;;;0.60;;
40501;SDS011;29631;49.168;9.848;2023-04-28T14:54:49;3.30;;;3.08;;
40501;SDS011;29631;49.168;9.848;2023-04-28T14:57:15;13.00;;;11.80;;
40501;SDS011;29631;49.168;9.848;2023-04-28T14:59:42;6.20;;;5.72;;
40501;SDS011;29631;49.168;9.848;2023-04-28T15:02:08;3.40;;;3.20;;
40501;SDS011;29631;49.168;9.848;2023-04-28T15:04:34;3.03;;;1.55;;
40501;SDS011;29631;49.168;9.848;2023-04-28T15:07:00;1.30;;;1.30;;
40501;SDS011;29631;49.168;9.848;2023-04-28T15:09:25;1.08;;;1.08;;
40501;SDS011;29631;49.168;9.848;2023-04-28T15:11:52;0.90;;;0.90;;
40501;SDS011;29631;49.168;9.848;2023-04-28T15:14:18;1.77;;;1.73;;
40501;SDS011;29631;49.168;9.848;2023-04-28T15:16:44;1.42;;;1.40;;
40501;SDS011;29631;49.168;9.848;2023-04-28T15:19:11;1.02;;;1.02;;
40501;SDS011;29631;49.168;9.848;2023-04-28T15:21:37;0.90;;;0.90;;